Time;durP1;ratioP1;P1;durP2;ratioP2;P2;SDS_P1;SDS_P2;PMS_P1;PMS_P2;Temp;Humidity;BMP_temperature;BMP_pressure;BME280_temperature;BME280_humidity;BME280_pressure;Samples;Min_cycle;Max_cycle;Signal;HPM_P1;HPM_P2
2022/07/01 00:00:00;;;;;;;25.37;20.13;;;;;;;;;;762346;182;919563;-70
2022/07/01 00:02:26;;;;;;;30.90;23.17;;;;;;;;;;763009;183;919645;-69
2022/07/01 00:04:52;;;;;;;27.20;21.87;;;;;;;;;;768595;182;919692;-70
2022/07/01 00:07:18;;;;;;;28.97;23.03;;;;;;;;;;764948;182;929396;-71
2022/07/01 00:09:44;;;;;;;27.73;22.80;;;;;;;;;;764207;182;919396;-69
2022/07/01 00:12:10;;;;;;;28.33;20.67;;;;;;;;;;761927;182;919291;-69
2022/07/01 00:14:36;;;;;;;26.23;21.57;;;;;;;;;;758439;184;1006400;-71
2022/07/01 00:17:02;;;;;;;27.50;22.27;;;;;;;;;;758338;183;919445;-70
2022/07/01 00:19:28;;;;;;;29.20;21.47;;;;;;;;;;762337;183;919562;-70
2022/07/01 00:21:53;;;;;;;27.00;21.40;;;;;;;;;;766461;183;918834;-70
2022/07/01 00:24:19;;;;;;;27.37;22.53;;;;;;;;;;760358;182;1020658;-70
2022/07/01 00:26:45;;;;;;;29.67;22.93;;;;;;;;;;763287;182;919511;-70
2022/07/01 00:29:11;;;;;;;26.40;22.00;;;;;;;;;;768225;182;919740;-70
2022/07/01 00:31:37;;;;;;;24.20;21.00;;;;;;;;;;761871;183;919127;-70
2022/07/01 00:34:03;;;;;;;24.60;20.67;;;;;;;;;;764396;182;919419;-70
2022/07/01 00:36:28;;;;;;;27.03;21.73;;;;;;;;;;768290;182;917507;-70
2022/07/01 00:38:54;;;;;;;30.93;22.77;;;;;;;;;;763882;183;1021737;-70
2022/07/01 00:41:21;;;;;;;26.43;22.67;;;;;;;;;;766060;182;918983;-70
2022/07/01 00:43:46;;;;;;;24.20;21.70;;;;;;;;;;764262;182;919752;-70
2022/07/01 00:46:12;;;;;;;21.50;19.20;;;;;;;;;;765634;181;919069;-69
2022/07/01 00:48:38;;;;;;;24.67;21.27;;;;;;;;;;760912;182;919271;-70
2022/07/01 00:51:04;;;;;;;25.30;21.75;;;;;;;;;;762833;182;919303;-70
2022/07/01 00:53:30;;;;;;;26.60;21.33;;;;;;;;;;765769;182;919563;-70
2022/07/01 00:55:55;;;;;;;29.00;20.27;;;;;;;;;;762159;182;919451;-70
2022/07/01 00:58:21;;;;;;;29.00;21.43;;;;;;;;;;761334;183;920100;-70
2022/07/01 01:00:47;;;;;;;23.77;21.03;;;;;;;;;;766687;182;919556;-71
2022/07/01 01:03:13;;;;;;;30.77;22.93;;;;;;;;;;766300;182;919672;-72
2022/07/01 01:05:39;;;;;;;23.30;20.70;;;;;;;;;;772085;182;627408;-71
2022/07/01 01:08:05;;;;;;;31.37;21.27;;;;;;;;;;769371;182;631839;-70
2022/07/01 01:10:31;;;;;;;24.20;21.67;;;;;;;;;;769165;182;918210;-70
2022/07/01 01:12:56;;;;;;;26.00;21.53;;;;;;;;;;767956;182;629286;-70
2022/07/01 01:15:22;;;;;;;26.30;22.13;;;;;;;;;;766963;182;918223;-70
2022/07/01 01:17:48;;;;;;;29.23;21.87;;;;;;;;;;770058;181;919472;-70
2022/07/01 01:20:17;;;;;;;27.83;22.87;;;;;;;;;;760969;182;918837;-70
2022/07/01 01:22:42;;;;;;;27.35;21.40;;;;;;;;;;761228;182;1021299;-70
2022/07/01 01:25:08;;;;;;;26.90;22.03;;;;;;;;;;766744;183;918862;-70
2022/07/01 01:27:34;;;;;;;29.10;24.50;;;;;;;;;;762817;182;1247020;-70
2022/07/01 01:30:00;;;;;;;29.33;22.73;;;;;;;;;;764008;183;919241;-69
2022/07/01 01:32:26;;;;;;;27.80;24.67;;;;;;;;;;763322;182;919386;-70
2022/07/01 01:34:52;;;;;;;26.87;23.50;;;;;;;;;;768873;182;918528;-70
2022/07/01 01:37:18;;;;;;;28.20;22.47;;;;;;;;;;765576;182;919975;-69
2022/07/01 01:39:43;;;;;;;25.47;22.70;;;;;;;;;;762686;182;910307;-70
2022/07/01 01:42:09;;;;;;;28.00;23.07;;;;;;;;;;767413;183;917689;-70
2022/07/01 01:44:35;;;;;;;28.90;22.87;;;;;;;;;;760438;182;919281;-69
2022/07/01 01:47:01;;;;;;;36.47;23.80;;;;;;;;;;761165;182;919108;-70
2022/07/01 01:49:27;;;;;;;32.80;22.67;;;;;;;;;;768814;182;918609;-71
2022/07/01 01:51:53;;;;;;;35.63;26.30;;;;;;;;;;764033;183;918728;-70
2022/07/01 01:54:18;;;;;;;29.98;23.70;;;;;;;;;;762051;183;920580;-69
2022/07/01 01:56:44;;;;;;;25.00;22.37;;;;;;;;;;765147;182;890508;-69
2022/07/01 01:59:12;;;;;;;27.53;20.57;;;;;;;;;;759950;183;917768;-70
2022/07/01 02:01:36;;;;;;;31.80;23.73;;;;;;;;;;763463;183;917983;-69
2022/07/01 02:04:02;;;;;;;26.40;22.10;;;;;;;;;;761131;182;920114;-69
2022/07/01 02:06:28;;;;;;;29.23;22.07;;;;;;;;;;769029;182;917556;-70
2022/07/01 02:08:54;;;;;;;27.50;21.40;;;;;;;;;;766837;182;919489;-71
2022/07/01 02:11:19;;;;;;;31.50;24.57;;;;;;;;;;763030;182;920770;-70
2022/07/01 02:13:45;;;;;;;28.53;22.30;;;;;;;;;;769306;182;918152;-69
2022/07/01 02:16:11;;;;;;;30.37;25.60;;;;;;;;;;765182;180;920359;-70
2022/07/01 02:18:37;;;;;;;33.30;23.38;;;;;;;;;;764480;182;1018061;-72
2022/07/01 02:21:03;;;;;;;30.43;25.57;;;;;;;;;;768656;182;921222;-71
2022/07/01 02:23:29;;;;;;;28.87;23.40;;;;;;;;;;762758;182;915726;-70
2022/07/01 02:25:55;;;;;;;31.70;24.73;;;;;;;;;;763480;182;930244;-71
2022/07/01 02:28:21;;;;;;;26.40;22.10;;;;;;;;;;763308;183;915619;-69
2022/07/01 02:30:47;;;;;;;28.57;23.87;;;;;;;;;;769424;182;919546;-70
2022/07/01 02:33:13;;;;;;;27.43;22.47;;;;;;;;;;764976;183;919239;-69
2022/07/01 02:35:39;;;;;;;27.08;22.02;;;;;;;;;;762864;182;1016839;-71
2022/07/01 02:38:04;;;;;;;26.60;21.70;;;;;;;;;;765635;182;916720;-71
2022/07/01 02:40:30;;;;;;;24.03;21.20;;;;;;;;;;761724;183;918044;-71
2022/07/01 02:42:56;;;;;;;23.93;19.97;;;;;;;;;;763395;182;919415;-71
2022/07/01 02:45:24;;;;;;;25.90;21.87;;;;;;;;;;768809;182;918606;-70
2022/07/01 02:47:48;;;;;;;28.20;22.48;;;;;;;;;;760129;181;922161;-72
2022/07/01 02:50:14;;;;;;;24.00;21.37;;;;;;;;;;762732;182;923049;-71
2022/07/01 02:52:40;;;;;;;26.20;21.57;;;;;;;;;;762864;182;919356;-70
2022/07/01 02:55:06;;;;;;;27.80;21.90;;;;;;;;;;768186;182;911185;-71
2022/07/01 02:57:32;;;;;;;24.60;20.80;;;;;;;;;;762142;183;918458;-72
2022/07/01 02:59:58;;;;;;;27.35;21.17;;;;;;;;;;761667;183;919256;-72
2022/07/01 03:02:24;;;;;;;23.20;20.57;;;;;;;;;;768376;183;942509;-72
2022/07/01 03:04:50;;;;;;;25.17;22.50;;;;;;;;;;764856;182;919353;-72
2022/07/01 03:07:16;;;;;;;30.47;21.53;;;;;;;;;;762440;182;918989;-72
2022/07/01 03:09:42;;;;;;;22.93;20.47;;;;;;;;;;765912;182;919203;-73
2022/07/01 03:14:40;;;;;;;30.17;21.57;;;;;;;;;;761937;182;920089;-71
2022/07/01 03:17:06;;;;;;;23.50;21.00;;;;;;;;;;762502;182;920154;-72
2022/07/01 03:19:32;;;;;;;26.43;22.07;;;;;;;;;;767630;182;919384;-71
2022/07/01 03:21:58;;;;;;;25.70;22.37;;;;;;;;;;763294;182;917898;-72
2022/07/01 03:24:24;;;;;;;25.12;21.77;;;;;;;;;;762469;182;919334;-72
2022/07/01 03:26:50;;;;;;;25.10;20.97;;;;;;;;;;767232;181;915055;-71
2022/07/01 03:29:16;;;;;;;25.20;21.20;;;;;;;;;;765057;182;916359;-70
2022/07/01 03:31:41;;;;;;;24.00;19.80;;;;;;;;;;762894;182;919113;-71
2022/07/01 03:34:07;;;;;;;33.97;23.63;;;;;;;;;;764192;182;914196;-71
2022/07/01 03:36:33;;;;;;;27.13;19.83;;;;;;;;;;762873;183;918370;-71
2022/07/01 03:39:00;;;;;;;25.47;21.27;;;;;;;;;;748463;184;919461;-72
2022/07/01 03:41:25;;;;;;;24.80;19.17;;;;;;;;;;749926;184;1120392;-71
2022/07/01 03:43:51;;;;;;;24.17;20.02;;;;;;;;;;758262;184;916211;-71
2022/07/01 03:46:17;;;;;;;25.70;20.17;;;;;;;;;;754003;184;921986;-70
2022/07/01 03:48:42;;;;;;;24.87;17.20;;;;;;;;;;754479;184;915427;-71
2022/07/01 03:51:08;;;;;;;29.43;18.53;;;;;;;;;;759721;184;912823;-71
2022/07/01 03:56:06;;;;;;;19.57;17.27;;;;;;;;;;724424;191;910625;-71
2022/07/01 03:58:32;;;;;;;18.97;16.77;;;;;;;;;;741200;185;1109951;-71
2022/07/01 04:00:58;;;;;;;22.33;17.10;;;;;;;;;;755330;184;916862;-70
2022/07/01 04:03:23;;;;;;;21.00;15.50;;;;;;;;;;749194;185;915920;-71
2022/07/01 04:05:49;;;;;;;17.57;15.60;;;;;;;;;;755463;184;812232;-71
2022/07/01 04:08:15;;;;;;;20.37;16.13;;;;;;;;;;770855;183;634013;-71
2022/07/01 04:10:41;;;;;;;17.73;15.63;;;;;;;;;;768446;182;626307;-71
2022/07/01 04:13:07;;;;;;;20.20;15.17;;;;;;;;;;764266;183;1008763;-70
2022/07/01 04:15:33;;;;;;;19.33;14.20;;;;;;;;;;768937;182;919138;-71
2022/07/01 04:17:58;;;;;;;18.13;15.97;;;;;;;;;;766569;183;621192;-71
2022/07/01 04:20:25;;;;;;;17.13;14.77;;;;;;;;;;765596;183;627457;-71
2022/07/01 04:22:50;;;;;;;16.67;13.57;;;;;;;;;;762115;182;919050;-70
2022/07/01 04:25:16;;;;;;;16.77;14.93;;;;;;;;;;766862;183;916688;-70
2022/07/01 04:27:42;;;;;;;17.27;15.50;;;;;;;;;;758576;183;918558;-70
2022/07/01 04:30:08;;;;;;;24.17;15.53;;;;;;;;;;759591;183;919235;-69
2022/07/01 04:32:35;;;;;;;20.40;16.40;;;;;;;;;;765518;182;919192;-70
2022/07/01 04:35:00;;;;;;;19.57;15.20;;;;;;;;;;763414;183;924453;-70
2022/07/01 04:37:26;;;;;;;19.67;15.67;;;;;;;;;;762594;182;918696;-70
2022/07/01 04:39:52;;;;;;;20.47;17.20;;;;;;;;;;769944;181;919516;-70
2022/07/01 04:42:20;;;;;;;23.03;17.37;;;;;;;;;;765783;182;931273;-73
2022/07/01 04:44:43;;;;;;;19.83;17.77;;;;;;;;;;764726;182;919640;-71
2022/07/01 04:47:09;;;;;;;30.30;16.83;;;;;;;;;;762130;182;920207;-69
2022/07/01 04:49:35;;;;;;;17.63;15.40;;;;;;;;;;766658;182;918810;-72
2022/07/01 04:52:01;;;;;;;19.33;16.08;;;;;;;;;;760764;183;918609;-72
2022/07/01 04:54:27;;;;;;;23.83;16.93;;;;;;;;;;762116;183;918870;-71
2022/07/01 04:56:53;;;;;;;20.53;16.60;;;;;;;;;;768863;182;931839;-71
2022/07/01 04:59:19;;;;;;;17.13;15.30;;;;;;;;;;761745;183;918982;-72
2022/07/01 05:01:45;;;;;;;19.47;15.50;;;;;;;;;;763026;182;1021636;-70
2022/07/01 05:04:10;;;;;;;17.80;15.90;;;;;;;;;;768237;183;919008;-72
2022/07/01 05:06:36;;;;;;;24.20;16.90;;;;;;;;;;761668;182;918071;-70
2022/07/01 05:09:02;;;;;;;20.37;16.20;;;;;;;;;;751204;183;919736;-70
2022/07/01 05:11:28;;;;;;;15.80;14.20;;;;;;;;;;763295;182;919230;-70
2022/07/01 05:13:54;;;;;;;17.47;14.47;;;;;;;;;;769251;183;920860;-72
2022/07/01 05:16:20;;;;;;;16.93;15.23;;;;;;;;;;759744;183;1021317;-71
2022/07/01 05:23:49;;;;;;;17.40;15.00;;;;;;;;;;769007;182;918488;-71
2022/07/01 05:26:17;;;;;;;19.00;14.00;;;;;;;;;;760788;183;918768;-71
2022/07/01 05:28:41;;;;;;;17.20;15.40;;;;;;;;;;761568;182;919753;-73
2022/07/01 05:31:07;;;;;;;17.10;14.17;;;;;;;;;;767669;182;902130;-75
2022/07/01 05:33:33;;;;;;;15.73;12.93;;;;;;;;;;763321;182;919349;-71
2022/07/01 05:35:59;;;;;;;16.37;14.63;;;;;;;;;;763441;182;925501;-73
2022/07/01 05:38:24;;;;;;;15.47;13.53;;;;;;;;;;767320;182;917971;-72
2022/07/01 05:40:52;;;;;;;19.67;13.80;;;;;;;;;;762382;182;919223;-72
2022/07/01 05:43:16;;;;;;;20.83;15.00;;;;;;;;;;764223;182;919729;-72
2022/07/01 05:45:43;;;;;;;14.40;12.90;;;;;;;;;;767810;182;918428;-72
2022/07/01 05:48:09;;;;;;;16.33;13.87;;;;;;;;;;760544;184;918255;-71
2022/07/01 05:50:34;;;;;;;15.10;13.60;;;;;;;;;;765339;180;919072;-72
2022/07/01 05:53:00;;;;;;;21.48;15.05;;;;;;;;;;766411;182;918993;-70
2022/07/01 05:55:26;;;;;;;16.07;12.83;;;;;;;;;;769072;182;919143;-74
2022/07/01 05:57:52;;;;;;;16.43;14.60;;;;;;;;;;769423;182;626070;-71
2022/07/01 06:00:18;;;;;;;14.50;12.83;;;;;;;;;;768420;183;655589;-72
2022/07/01 06:02:44;;;;;;;17.80;13.50;;;;;;;;;;768917;182;615932;-74
2022/07/01 06:05:09;;;;;;;18.20;12.57;;;;;;;;;;768275;182;919523;-76
2022/07/01 06:07:35;;;;;;;21.00;13.40;;;;;;;;;;765892;183;816179;-74
2022/07/01 06:10:01;;;;;;;18.37;14.17;;;;;;;;;;768031;182;816410;-72
2022/07/01 06:12:27;;;;;;;16.30;14.63;;;;;;;;;;762816;182;916728;-73
2022/07/01 06:14:53;;;;;;;15.83;13.57;;;;;;;;;;764019;183;1121778;-75
2022/07/01 06:17:19;;;;;;;19.10;13.67;;;;;;;;;;763486;182;918513;-74
2022/07/01 06:19:45;;;;;;;14.80;13.33;;;;;;;;;;769423;182;877584;-74
2022/07/01 06:22:11;;;;;;;14.77;12.77;;;;;;;;;;765282;182;897331;-75
2022/07/01 06:24:36;;;;;;;14.23;12.40;;;;;;;;;;765055;182;918760;-74
2022/07/01 06:27:04;;;;;;;16.70;13.63;;;;;;;;;;766898;182;920711;-75
2022/07/01 06:29:29;;;;;;;15.87;14.27;;;;;;;;;;762836;182;912293;-76
2022/07/01 06:31:54;;;;;;;16.23;13.13;;;;;;;;;;761868;182;890561;-74
2022/07/01 06:34:20;;;;;;;18.47;13.33;;;;;;;;;;766071;182;919178;-74
2022/07/01 06:36:46;;;;;;;18.90;12.90;;;;;;;;;;763556;182;918576;-75
2022/07/01 06:39:12;;;;;;;19.53;12.80;;;;;;;;;;762862;183;918632;-76
2022/07/01 06:41:37;;;;;;;14.77;12.17;;;;;;;;;;764477;183;902430;-76
2022/07/01 06:44:04;;;;;;;15.90;12.67;;;;;;;;;;764563;183;918118;-75
2022/07/01 06:46:30;;;;;;;14.77;13.13;;;;;;;;;;759468;183;1026973;-77
2022/07/01 06:48:55;;;;;;;13.40;12.10;;;;;;;;;;767491;182;636769;-77
2022/07/01 06:51:21;;;;;;;18.87;12.80;;;;;;;;;;771217;182;613751;-77
2022/07/01 06:53:47;;;;;;;14.77;13.17;;;;;;;;;;767088;182;617311;-77
2022/07/01 06:56:13;;;;;;;16.20;12.87;;;;;;;;;;765996;182;673988;-77
2022/07/01 06:58:39;;;;;;;18.80;13.67;;;;;;;;;;770688;182;672927;-77
2022/07/01 07:01:05;;;;;;;15.23;12.53;;;;;;;;;;767188;182;712281;-76
2022/07/01 07:03:32;;;;;;;16.73;13.63;;;;;;;;;;770699;182;628936;-77
2022/07/01 07:05:57;;;;;;;19.27;13.33;;;;;;;;;;768318;182;625483;-76
2022/07/01 07:08:22;;;;;;;13.20;11.80;;;;;;;;;;773618;179;619060;-75
2022/07/01 07:10:48;;;;;;;20.00;12.30;;;;;;;;;;764965;182;630940;-76
2022/07/01 07:13:14;;;;;;;15.20;12.03;;;;;;;;;;767229;182;629020;-75
2022/07/01 07:15:41;;;;;;;18.83;13.87;;;;;;;;;;770740;182;698461;-78
2022/07/01 07:18:07;;;;;;;15.50;12.00;;;;;;;;;;766685;181;792159;-76
2022/07/01 07:20:32;;;;;;;22.23;13.00;;;;;;;;;;766998;182;655175;-76
2022/07/01 07:22:57;;;;;;;15.33;13.17;;;;;;;;;;770069;182;925565;-78
2022/07/01 07:25:23;;;;;;;15.00;12.47;;;;;;;;;;768065;182;632624;-78
2022/07/01 07:27:49;;;;;;;17.90;11.57;;;;;;;;;;767960;182;624110;-78
2022/07/01 07:30:16;;;;;;;14.60;12.40;;;;;;;;;;770194;182;626972;-76
2022/07/01 07:32:41;;;;;;;15.43;12.30;;;;;;;;;;763002;183;617122;-77
2022/07/01 07:35:08;;;;;;;13.87;11.77;;;;;;;;;;762259;183;653845;-79
2022/07/01 07:37:34;;;;;;;18.03;12.63;;;;;;;;;;765999;180;631040;-75
2022/07/01 07:40:00;;;;;;;14.23;11.93;;;;;;;;;;768744;182;616002;-77
2022/07/01 07:42:25;;;;;;;16.30;11.70;;;;;;;;;;767532;183;629991;-76
2022/07/01 07:44:51;;;;;;;13.20;10.90;;;;;;;;;;764868;182;915632;-77
2022/07/01 07:47:17;;;;;;;18.40;12.30;;;;;;;;;;769415;183;914404;-75
2022/07/01 07:49:43;;;;;;;14.00;11.90;;;;;;;;;;766653;182;637473;-76
2022/07/01 07:52:09;;;;;;;12.67;11.40;;;;;;;;;;764204;183;618611;-77
2022/07/01 07:54:35;;;;;;;13.40;11.93;;;;;;;;;;771643;182;614563;-76
2022/07/01 07:57:00;;;;;;;16.63;10.90;;;;;;;;;;766028;182;624550;-76
2022/07/01 07:59:26;;;;;;;16.53;12.07;;;;;;;;;;765153;183;753118;-75
2022/07/01 08:01:52;;;;;;;21.07;10.83;;;;;;;;;;766465;182;630580;-76
2022/07/01 08:04:18;;;;;;;17.17;11.87;;;;;;;;;;771534;182;622982;-75
2022/07/01 08:06:44;;;;;;;14.10;11.50;;;;;;;;;;768503;182;632461;-78
2022/07/01 08:09:10;;;;;;;15.83;10.80;;;;;;;;;;765833;182;659760;-78
2022/07/01 08:11:36;;;;;;;17.10;11.60;;;;;;;;;;768973;180;918414;-76
2022/07/01 08:14:02;;;;;;;17.43;11.40;;;;;;;;;;768204;180;682237;-74
2022/07/01 08:16:27;;;;;;;12.30;11.00;;;;;;;;;;767896;182;618717;-74
2022/07/01 08:18:53;;;;;;;15.33;11.07;;;;;;;;;;768935;182;909850;-77
2022/07/01 08:21:19;;;;;;;15.57;11.53;;;;;;;;;;767528;182;620225;-76
2022/07/01 08:23:45;;;;;;;20.00;11.63;;;;;;;;;;766947;182;628961;-75
2022/07/01 08:26:14;;;;;;;13.33;11.33;;;;;;;;;;754980;183;638485;-76
2022/07/01 08:28:38;;;;;;;17.53;10.40;;;;;;;;;;771965;182;626022;-75
2022/07/01 08:31:03;;;;;;;16.03;11.17;;;;;;;;;;769188;182;626689;-73
2022/07/01 08:33:29;;;;;;;13.37;10.90;;;;;;;;;;768386;182;642448;-74
2022/07/01 08:35:55;;;;;;;11.53;10.33;;;;;;;;;;770181;182;815101;-75
2022/07/01 08:38:21;;;;;;;15.17;11.47;;;;;;;;;;766033;182;810580;-76
2022/07/01 08:40:47;;;;;;;13.97;12.00;;;;;;;;;;766913;182;619460;-76
2022/07/01 08:43:13;;;;;;;13.77;10.63;;;;;;;;;;771219;182;626770;-74
2022/07/01 08:45:39;;;;;;;13.60;10.57;;;;;;;;;;763797;182;1020112;-75
2022/07/01 08:48:05;;;;;;;17.50;10.40;;;;;;;;;;766282;182;625405;-78
2022/07/01 08:50:30;;;;;;;13.70;11.00;;;;;;;;;;766533;182;632934;-73
2022/07/01 08:52:56;;;;;;;13.77;9.90;;;;;;;;;;770376;183;639624;-76
2022/07/01 08:55:23;;;;;;;16.37;11.17;;;;;;;;;;766326;183;655278;-77
2022/07/01 08:57:49;;;;;;;15.73;11.30;;;;;;;;;;767376;182;619413;-77
2022/07/01 09:00:15;;;;;;;13.20;11.80;;;;;;;;;;769791;183;615154;-73
2022/07/01 09:02:47;;;;;;;14.90;10.70;;;;;;;;;;766520;182;634603;-76
2022/07/01 09:05:12;;;;;;;14.67;11.90;;;;;;;;;;762509;182;929601;-76
2022/07/01 09:07:38;;;;;;;17.63;11.43;;;;;;;;;;765674;182;689835;-76
2022/07/01 09:10:10;;;;;;;19.50;12.30;;;;;;;;;;760012;183;628392;-75
2022/07/01 09:12:39;;;;;;;12.97;11.67;;;;;;;;;;761369;182;919599;-76
2022/07/01 09:15:06;;;;;;;19.90;12.10;;;;;;;;;;766436;182;630103;-77
2022/07/01 09:17:31;;;;;;;21.07;11.47;;;;;;;;;;764708;182;617683;-75
2022/07/01 09:19:57;;;;;;;20.50;12.47;;;;;;;;;;768810;183;636209;-76
2022/07/01 09:22:23;;;;;;;17.73;12.70;;;;;;;;;;764014;182;927276;-75
2022/07/01 09:24:49;;;;;;;12.77;11.10;;;;;;;;;;763277;180;918043;-75
2022/07/01 09:27:17;;;;;;;13.07;10.97;;;;;;;;;;772854;182;623852;-74
2022/07/01 09:29:43;;;;;;;15.13;11.77;;;;;;;;;;766920;182;644368;-75
2022/07/01 09:32:09;;;;;;;13.17;10.43;;;;;;;;;;767375;182;626771;-73
2022/07/01 09:34:35;;;;;;;13.10;11.20;;;;;;;;;;771267;182;917495;-76
2022/07/01 09:37:01;;;;;;;14.13;11.43;;;;;;;;;;766768;181;643989;-75
2022/07/01 09:39:27;;;;;;;12.83;10.70;;;;;;;;;;768625;183;616329;-75
2022/07/01 09:41:54;;;;;;;13.10;11.83;;;;;;;;;;763425;182;909704;-73
2022/07/01 09:44:20;;;;;;;16.83;11.37;;;;;;;;;;761922;181;919241;-75
2022/07/01 09:46:51;;;;;;;15.63;10.90;;;;;;;;;;763383;182;915734;-74
2022/07/01 09:49:18;;;;;;;15.57;11.47;;;;;;;;;;765493;182;622908;-74
2022/07/01 09:51:44;;;;;;;12.57;10.67;;;;;;;;;;771678;182;613662;-74
2022/07/01 09:54:10;;;;;;;12.20;10.30;;;;;;;;;;768173;182;620269;-76
2022/07/01 09:56:36;;;;;;;11.17;10.07;;;;;;;;;;766048;180;913433;-75
2022/07/01 09:59:01;;;;;;;13.27;11.97;;;;;;;;;;768136;182;912754;-71
2022/07/01 10:01:28;;;;;;;12.67;11.37;;;;;;;;;;773350;180;629862;-73
2022/07/01 10:03:53;;;;;;;21.90;12.90;;;;;;;;;;764068;182;914397;-71
2022/07/01 10:06:20;;;;;;;14.23;11.83;;;;;;;;;;762601;182;1120324;-73
2022/07/01 10:08:46;;;;;;;18.70;11.57;;;;;;;;;;768181;183;628318;-71
2022/07/01 10:11:18;;;;;;;16.10;11.47;;;;;;;;;;765867;182;626173;-72
2022/07/01 10:13:44;;;;;;;16.30;11.17;;;;;;;;;;765892;182;639222;-71
2022/07/01 10:16:10;;;;;;;15.50;11.37;;;;;;;;;;765087;182;631936;-72
2022/07/01 10:18:36;;;;;;;12.10;10.90;;;;;;;;;;770116;183;616391;-74
2022/07/01 10:21:03;;;;;;;18.13;11.33;;;;;;;;;;766225;182;647626;-72
2022/07/01 10:23:29;;;;;;;11.73;10.50;;;;;;;;;;766522;182;631205;-71
2022/07/01 10:25:55;;;;;;;21.73;10.90;;;;;;;;;;769515;182;630026;-73
2022/07/01 10:28:22;;;;;;;15.27;11.07;;;;;;;;;;765039;182;652288;-72
2022/07/01 10:30:53;;;;;;;15.47;11.23;;;;;;;;;;764891;183;623852;-73
2022/07/01 10:33:25;;;;;;;12.60;10.13;;;;;;;;;;763582;182;623007;-72
2022/07/01 10:35:50;;;;;;;15.90;10.50;;;;;;;;;;772144;182;616866;-70
2022/07/01 10:38:16;;;;;;;20.30;11.30;;;;;;;;;;768062;182;627052;-72
2022/07/01 10:40:45;;;;;;;16.80;11.83;;;;;;;;;;769147;181;629885;-73
2022/07/01 10:43:08;;;;;;;14.97;11.90;;;;;;;;;;770429;182;639120;-75
2022/07/01 10:45:34;;;;;;;13.30;11.60;;;;;;;;;;768109;182;1037482;-72
2022/07/01 10:48:06;;;;;;;13.93;11.77;;;;;;;;;;767841;182;628163;-72
2022/07/01 10:50:32;;;;;;;13.53;11.63;;;;;;;;;;770325;182;633426;-73
2022/07/01 10:52:58;;;;;;;18.10;11.33;;;;;;;;;;770882;183;615148;-71
2022/07/01 10:55:24;;;;;;;17.83;11.90;;;;;;;;;;768324;182;625462;-70
2022/07/01 10:57:49;;;;;;;14.63;12.80;;;;;;;;;;766246;182;624123;-72
2022/07/01 11:00:16;;;;;;;19.40;11.70;;;;;;;;;;768035;183;666475;-72
2022/07/01 11:02:42;;;;;;;13.70;11.80;;;;;;;;;;764275;183;624537;-70
2022/07/01 11:05:08;;;;;;;20.03;11.40;;;;;;;;;;764559;183;919542;-70
2022/07/01 11:07:34;;;;;;;15.30;11.73;;;;;;;;;;765431;182;919414;-72
2022/07/01 11:10:00;;;;;;;14.33;11.93;;;;;;;;;;770471;182;636949;-70
2022/07/01 11:12:25;;;;;;;14.40;12.10;;;;;;;;;;766343;182;655156;-71
2022/07/01 11:14:51;;;;;;;17.83;11.60;;;;;;;;;;767743;182;624834;-70
2022/07/01 11:17:17;;;;;;;24.57;11.87;;;;;;;;;;770625;182;613843;-72
2022/07/01 11:19:49;;;;;;;14.30;11.97;;;;;;;;;;764688;182;619856;-72
2022/07/01 11:22:19;;;;;;;12.67;11.50;;;;;;;;;;764878;182;849870;-71
2022/07/01 11:24:44;;;;;;;19.30;12.37;;;;;;;;;;765450;182;646198;-71
2022/07/01 11:27:10;;;;;;;14.10;11.67;;;;;;;;;;771640;182;689973;-73
2022/07/01 11:29:36;;;;;;;14.07;11.87;;;;;;;;;;762938;182;917514;-71
2022/07/01 11:32:02;;;;;;;15.10;11.93;;;;;;;;;;766760;182;809678;-72
2022/07/01 11:34:28;;;;;;;15.20;11.63;;;;;;;;;;767260;182;920578;-72
2022/07/01 11:39:26;;;;;;;12.37;11.17;;;;;;;;;;762752;182;919304;-71
2022/07/01 11:41:53;;;;;;;16.07;11.00;;;;;;;;;;763121;182;927210;-72
2022/07/01 11:44:24;;;;;;;14.90;10.97;;;;;;;;;;771367;182;633072;-73
2022/07/01 11:46:50;;;;;;;16.70;12.63;;;;;;;;;;767179;182;635716;-72
2022/07/01 11:49:18;;;;;;;14.50;11.37;;;;;;;;;;766018;182;627522;-72
2022/07/01 11:51:42;;;;;;;14.47;11.53;;;;;;;;;;763093;182;916086;-73
2022/07/01 11:54:08;;;;;;;14.30;12.13;;;;;;;;;;774087;182;666320;-72
2022/07/01 11:56:34;;;;;;;15.70;11.30;;;;;;;;;;766961;182;629716;-73
2022/07/01 11:59:01;;;;;;;16.80;11.60;;;;;;;;;;765204;182;628681;-72
2022/07/01 12:01:26;;;;;;;15.20;12.67;;;;;;;;;;771503;180;627946;-72
2022/07/01 12:03:51;;;;;;;17.10;11.40;;;;;;;;;;765727;182;717484;-74
2022/07/01 12:06:18;;;;;;;14.70;11.60;;;;;;;;;;769491;182;625312;-70
2022/07/01 12:08:44;;;;;;;16.93;12.80;;;;;;;;;;772045;182;629811;-72
2022/07/01 12:11:09;;;;;;;18.70;11.47;;;;;;;;;;766374;183;910795;-73
2022/07/01 12:13:35;;;;;;;13.23;10.83;;;;;;;;;;768895;182;629388;-71
2022/07/01 12:16:06;;;;;;;12.20;11.00;;;;;;;;;;767188;182;636999;-72
2022/07/01 12:18:31;;;;;;;21.00;11.57;;;;;;;;;;767738;183;619469;-71
2022/07/01 12:20:57;;;;;;;16.50;10.93;;;;;;;;;;761326;183;626922;-72
2022/07/01 12:23:23;;;;;;;14.60;10.70;;;;;;;;;;765520;182;899079;-73
2022/07/01 12:25:49;;;;;;;13.20;9.90;;;;;;;;;;766959;182;920003;-72
2022/07/01 12:28:21;;;;;;;12.93;11.73;;;;;;;;;;767295;182;637732;-73
2022/07/01 12:30:46;;;;;;;13.13;10.20;;;;;;;;;;766595;183;626633;-73
2022/07/01 12:33:12;;;;;;;16.83;10.90;;;;;;;;;;765290;182;917802;-72
2022/07/01 12:35:38;;;;;;;15.80;10.80;;;;;;;;;;771151;182;622394;-72
2022/07/01 12:38:07;;;;;;;22.23;12.50;;;;;;;;;;768864;182;637696;-72
2022/07/01 12:40:30;;;;;;;11.93;10.10;;;;;;;;;;765714;182;919104;-73
2022/07/01 12:42:56;;;;;;;14.07;10.57;;;;;;;;;;767073;182;918775;-73
2022/07/01 12:45:23;;;;;;;13.20;10.13;;;;;;;;;;765437;183;632179;-72
2022/07/01 12:47:48;;;;;;;12.13;10.90;;;;;;;;;;765938;183;629756;-74
2022/07/01 12:50:14;;;;;;;13.07;10.23;;;;;;;;;;768453;183;642382;-72
2022/07/01 12:52:42;;;;;;;12.93;10.23;;;;;;;;;;766656;183;627413;-72
2022/07/01 12:55:14;;;;;;;16.83;10.17;;;;;;;;;;764999;183;918913;-73
2022/07/01 12:57:40;;;;;;;14.83;10.30;;;;;;;;;;764448;183;637811;-73
2022/07/01 13:00:06;;;;;;;18.53;9.27;;;;;;;;;;769347;181;918794;-73
2022/07/01 13:02:32;;;;;;;12.63;10.07;;;;;;;;;;769146;182;915044;-73
2022/07/01 13:04:58;;;;;;;11.90;10.30;;;;;;;;;;768073;182;635817;-73
2022/07/01 13:07:24;;;;;;;17.20;9.57;;;;;;;;;;769156;182;641563;-75
2022/07/01 13:09:50;;;;;;;11.87;10.67;;;;;;;;;;765429;181;640938;-73
2022/07/01 13:12:16;;;;;;;11.07;9.27;;;;;;;;;;766978;182;630078;-74
2022/07/01 13:14:41;;;;;;;15.00;10.83;;;;;;;;;;766951;182;617526;-75
2022/07/01 13:17:07;;;;;;;13.00;9.17;;;;;;;;;;769942;183;814627;-74
2022/07/01 13:19:34;;;;;;;12.67;10.10;;;;;;;;;;766257;182;660888;-75
2022/07/01 13:21:59;;;;;;;14.50;10.30;;;;;;;;;;766537;183;916583;-75
2022/07/01 13:24:25;;;;;;;17.83;10.87;;;;;;;;;;767020;183;908161;-71
2022/07/01 13:26:51;;;;;;;11.27;9.20;;;;;;;;;;766974;182;630305;-75
2022/07/01 13:29:17;;;;;;;9.73;8.80;;;;;;;;;;766014;182;623326;-74
2022/07/01 13:31:42;;;;;;;16.37;8.07;;;;;;;;;;766133;183;628602;-73
2022/07/01 13:34:08;;;;;;;18.13;9.87;;;;;;;;;;757936;184;919048;-74
2022/07/01 13:36:34;;;;;;;12.87;9.50;;;;;;;;;;766133;183;918859;-72
2022/07/01 13:39:00;;;;;;;12.77;8.83;;;;;;;;;;767050;182;643894;-75
2022/07/01 13:41:26;;;;;;;11.50;7.63;;;;;;;;;;769197;182;919393;-74
2022/07/01 13:43:52;;;;;;;16.20;8.27;;;;;;;;;;765770;182;811058;-73
2022/07/01 13:46:17;;;;;;;10.70;7.80;;;;;;;;;;763240;183;638546;-72
2022/07/01 13:48:43;;;;;;;11.73;6.90;;;;;;;;;;769266;183;619522;-73
2022/07/01 13:51:09;;;;;;;10.03;7.33;;;;;;;;;;767046;182;918219;-74
2022/07/01 13:53:35;;;;;;;13.60;7.27;;;;;;;;;;762036;182;918112;-75
2022/07/01 13:56:01;;;;;;;17.50;7.30;;;;;;;;;;765675;183;783575;-76
2022/07/01 13:58:27;;;;;;;8.20;6.50;;;;;;;;;;767492;182;636704;-76
2022/07/01 14:00:53;;;;;;;15.40;6.93;;;;;;;;;;764124;182;909798;-75
2022/07/01 14:03:19;;;;;;;16.03;7.50;;;;;;;;;;763685;183;918918;-75
2022/07/01 14:05:46;;;;;;;13.43;6.90;;;;;;;;;;771573;182;632441;-74
2022/07/01 14:08:12;;;;;;;8.30;6.60;;;;;;;;;;764450;182;919800;-75